KDHN/DHN METAR and TAF weather

Enter ICAO airport designator
Station Type Date Time Source
KDHN METAR 2024/06/15 23:53 UTC NOAA

KDHN 152353Z 10004KT 10SM CLR 34/18 A2995 RMK AO2 SLP136 T03390183 10361 20339 55006


Station Type Date Time Source
KDHN Decoded METAR 2024/06/15 23:53 UTC NOAA

DOTHAN AIRPORT, AL, United States (KDHN) 31-19N 085-27W 113M
Jun 15, 2024 - 07:53 PM EDT / 2024.06.15 2353 UTC
Wind: from the E (100 degrees) at 5 MPH (4 KT):0
Visibility: 10 mile(s):0
Sky conditions: clear
Temperature: 93.0 F (33.9 C)
Heat index: 95.0 F (35.0 C):1
Dew Point: 64.9 F (18.3 C)
Relative Humidity: 39%
Pressure (altimeter): 29.95 in. Hg (1014 hPa)
Pressure tendency: 0.02 inches (0.6 hPa) lower than three hours ago
ob: KDHN 152353Z 10004KT 10SM CLR 34/18 A2995 RMK AO2 SLP136 T03390183 10361 20339 55006
cycle: 0

Station Type Date Time Source
KDHN TAF 2024/06/15 18:42 UTC NOAA